Time;durP1;ratioP1;P1;durP2;ratioP2;P2;SDS_P1;SDS_P2;PMS_P1;PMS_P2;Temp;Humidity;BMP_temperature;BMP_pressure;BME280_temperature;BME280_humidity;BME280_pressure;Samples;Min_cycle;Max_cycle;Signal;HPM_P1;HPM_P2
2023/05/17 00:00:30;;;;;;;0.50;0.40;;;;;;;16.10;100.00;94807.38;5073063;28;20442;-60
2023/05/17 00:02:58;;;;;;;0.73;0.73;;;;;;;16.16;100.00;94811.47;5073357;28;20519;-60
2023/05/17 00:05:27;;;;;;;0.40;0.30;;;;;;;16.27;100.00;94808.16;5073533;28;20448;-60
2023/05/17 00:07:56;;;;;;;0.40;0.20;;;;;;;16.16;100.00;94806.91;5073220;28;20495;-60
2023/05/17 00:10:24;;;;;;;0.43;0.33;;;;;;;16.33;100.00;94820.25;5073030;28;20444;-60
2023/05/17 00:12:54;;;;;;;1.03;1.03;;;;;;;16.37;100.00;94815.03;5073539;28;20499;-60
2023/05/17 00:15:22;;;;;;;0.40;0.20;;;;;;;16.39;100.00;94812.88;5073223;28;20487;-60
2023/05/17 00:17:52;;;;;;;0.40;0.20;;;;;;;15.74;100.00;94811.16;5072622;28;20464;-60
2023/05/17 00:20:21;;;;;;;1.73;0.93;;;;;;;15.27;100.00;94814.66;5073376;28;20792;-60
2023/05/17 00:22:49;;;;;;;0.50;0.30;;;;;;;15.05;100.00;94814.75;5072153;28;20465;-60
2023/05/17 00:25:17;;;;;;;0.40;0.30;;;;;;;14.90;100.00;94805.25;5072590;28;20442;-60
2023/05/17 00:27:46;;;;;;;0.87;0.87;;;;;;;14.85;100.00;94792.06;5072885;28;20470;-60
2023/05/17 00:30:15;;;;;;;3.30;0.70;;;;;;;14.97;100.00;94808.28;5073185;28;20465;-59
2023/05/17 00:32:45;;;;;;;1.33;0.50;;;;;;;14.97;100.00;94800.28;5072146;28;20457;-59
2023/05/17 00:35:14;;;;;;;0.40;0.30;;;;;;;15.35;100.00;94800.53;5072985;28;20442;-59
2023/05/17 00:37:46;;;;;;;0.40;0.20;;;;;;;15.45;100.00;94812.81;5072591;28;20499;-59
2023/05/17 00:40:15;;;;;;;0.37;0.20;;;;;;;15.73;100.00;94811.47;5072657;28;20947;-59
2023/05/17 00:42:44;;;;;;;0.97;0.87;;;;;;;15.33;100.00;94815.31;5071965;28;20547;-59
2023/05/17 00:45:12;;;;;;;0.40;0.30;;;;;;;15.09;100.00;94803.16;5072800;28;20882;-59
2023/05/17 00:47:42;;;;;;;0.97;0.83;;;;;;;15.06;100.00;94809.09;5071904;28;20934;-59
2023/05/17 00:50:11;;;;;;;3.43;1.60;;;;;;;14.77;100.00;94808.03;5072674;28;20509;-59
2023/05/17 00:52:42;;;;;;;0.40;0.30;;;;;;;15.20;100.00;94801.75;5072797;28;20441;-60
2023/05/17 00:55:11;;;;;;;0.40;0.20;;;;;;;15.48;100.00;94798.88;5071820;28;20498;-60
2023/05/17 00:57:40;;;;;;;2.00;1.00;;;;;;;15.52;100.00;94799.81;5046528;28;20491;-60
2023/05/17 01:00:09;;;;;;;0.50;0.30;;;;;;;15.76;100.00;94794.81;5071435;28;20449;-60
2023/05/17 01:02:37;;;;;;;0.40;0.30;;;;;;;15.70;100.00;94790.72;5072184;28;20460;-60
2023/05/17 01:05:07;;;;;;;0.40;0.40;;;;;;;15.87;100.00;94791.50;5070844;28;20434;-60
2023/05/17 01:07:36;;;;;;;0.40;0.40;;;;;;;15.93;100.00;94786.00;5060444;28;20486;-60
2023/05/17 01:10:06;;;;;;;0.40;0.20;;;;;;;15.93;100.00;94778.78;5071561;28;20441;-60
2023/05/17 01:12:46;;;;;;;0.40;0.20;;;;;;;15.94;100.00;94772.31;5071854;28;21011;-60
2023/05/17 01:15:18;;;;;;;0.43;0.30;;;;;;;15.95;100.00;94765.88;5071776;28;20445;-60
2023/05/17 01:17:54;;;;;;;0.40;0.20;;;;;;;15.83;100.00;94758.50;5071761;28;20981;-60
2023/05/17 01:20:28;;;;;;;0.70;0.60;;;;;;;15.84;100.00;94759.28;5072124;28;20437;-60
2023/05/17 01:23:10;;;;;;;0.40;0.30;;;;;;;15.77;100.00;94750.94;5071566;28;20450;-60
2023/05/17 01:25:52;;;;;;;1.07;0.40;;;;;;;15.76;100.00;94757.41;5071434;28;20452;-60
2023/05/17 01:28:24;;;;;;;2.00;0.50;;;;;;;15.72;100.00;94743.88;5071488;28;20468;-60
2023/05/17 01:30:54;;;;;;;0.40;0.30;;;;;;;15.64;100.00;94746.56;5071570;28;20437;-60
2023/05/17 01:33:23;;;;;;;0.40;0.30;;;;;;;15.59;100.00;94752.03;5071781;28;20441;-60
2023/05/17 01:35:51;;;;;;;0.40;0.20;;;;;;;15.65;100.00;94766.84;5071325;28;20441;-60
2023/05/17 01:38:20;;;;;;;0.50;0.43;;;;;;;15.62;100.00;94762.09;5070710;28;20444;-60
2023/05/17 01:40:55;;;;;;;0.40;0.20;;;;;;;15.61;100.00;94755.22;5071204;28;20816;-60
2023/05/17 01:43:32;;;;;;;0.40;0.20;;;;;;;15.31;100.00;94762.19;5070954;28;20468;-60
2023/05/17 01:46:09;;;;;;;0.40;0.20;;;;;;;15.40;100.00;94759.56;5070503;28;20441;-60
2023/05/17 01:48:44;;;;;;;0.40;0.30;;;;;;;15.41;100.00;94747.75;5070918;28;20445;-61
2023/05/17 01:51:18;;;;;;;0.40;0.30;;;;;;;15.38;100.00;94748.41;5045752;28;20953;-60
2023/05/17 01:53:55;;;;;;;0.40;0.30;;;;;;;15.24;100.00;94737.84;5070553;28;20441;-60
2023/05/17 01:56:28;;;;;;;7.20;0.60;;;;;;;15.35;100.00;94757.03;5071549;28;20965;-60
2023/05/17 01:59:00;;;;;;;0.60;0.60;;;;;;;15.32;100.00;94763.00;5068265;28;20872;-60
2023/05/17 02:01:31;;;;;;;0.60;0.60;;;;;;;15.38;100.00;94762.53;5071789;28;20434;-60
2023/05/17 02:04:00;;;;;;;0.40;0.40;;;;;;;15.37;100.00;94765.50;5071258;28;20484;-60
2023/05/17 02:06:28;;;;;;;0.40;0.20;;;;;;;15.39;100.00;94769.44;5071393;28;20448;-60
2023/05/17 02:08:57;;;;;;;0.40;0.30;;;;;;;15.35;100.00;94770.38;5058409;28;20524;-60
2023/05/17 02:11:25;;;;;;;1.37;1.37;;;;;;;15.33;100.00;94770.69;5071382;28;20449;-60
2023/05/17 02:13:54;;;;;;;1.63;0.40;;;;;;;14.91;100.00;94771.38;5071349;28;20441;-60
2023/05/17 02:16:24;;;;;;;0.90;0.30;;;;;;;14.99;100.00;94783.94;5070911;28;20434;-60
2023/05/17 02:18:52;;;;;;;0.40;0.30;;;;;;;14.98;100.00;94780.50;5071391;28;20503;-60
2023/05/17 02:21:20;;;;;;;0.40;0.23;;;;;;;14.81;100.00;94785.78;5069141;28;20520;-60
2023/05/17 02:23:49;;;;;;;0.40;0.30;;;;;;;15.00;100.00;94799.63;5060559;28;20519;-60
2023/05/17 02:26:17;;;;;;;0.40;0.23;;;;;;;15.12;100.00;94799.06;5070747;28;20499;-60
2023/05/17 02:28:45;;;;;;;0.53;0.53;;;;;;;15.21;100.00;94797.19;5070815;28;21087;-60
2023/05/17 02:31:13;;;;;;;0.50;0.37;;;;;;;15.20;100.00;94798.31;5070816;28;20438;-60
2023/05/17 02:33:43;;;;;;;0.87;0.87;;;;;;;14.80;100.00;94794.84;5070942;28;20453;-60
2023/05/17 02:36:12;;;;;;;0.50;0.30;;;;;;;14.94;100.00;94787.56;5071239;28;20448;-60
2023/05/17 02:38:40;;;;;;;1.70;0.70;;;;;;;14.98;100.00;94785.03;5070678;28;20827;-60
2023/05/17 02:41:08;;;;;;;0.50;0.30;;;;;;;15.14;100.00;94783.53;5070811;28;20476;-60
2023/05/17 02:43:37;;;;;;;0.40;0.30;;;;;;;15.22;100.00;94777.44;5070973;28;20472;-60
2023/05/17 02:46:06;;;;;;;0.40;0.30;;;;;;;15.23;100.00;94773.63;5070879;28;20434;-60
2023/05/17 02:48:34;;;;;;;1.60;0.40;;;;;;;15.23;100.00;94777.09;5071087;28;20442;-60
2023/05/17 02:51:04;;;;;;;0.47;0.47;;;;;;;15.22;100.00;94778.22;5045011;28;20453;-60
2023/05/17 02:53:32;;;;;;;0.50;0.30;;;;;;;15.20;100.00;94792.97;5070775;28;20445;-60
2023/05/17 02:56:01;;;;;;;0.43;0.33;;;;;;;15.20;100.00;94799.06;5071036;28;20531;-60
2023/05/17 02:58:29;;;;;;;0.43;0.27;;;;;;;15.28;100.00;94786.84;5071086;28;20438;-60
2023/05/17 03:00:57;;;;;;;0.40;0.20;;;;;;;15.30;100.00;94789.22;5070855;28;20442;-60
2023/05/17 03:03:26;;;;;;;0.50;0.50;;;;;;;15.35;100.00;94789.06;5070790;28;20449;-60
2023/05/17 03:05:54;;;;;;;0.53;0.53;;;;;;;15.31;100.00;94790.78;5070712;28;20509;-60
2023/05/17 03:08:25;;;;;;;0.63;0.60;;;;;;;15.31;100.00;94785.44;5074260;28;20809;-60
2023/05/17 03:10:53;;;;;;;0.77;0.27;;;;;;;15.31;100.00;94790.78;5074153;28;20438;-60
2023/05/17 03:13:22;;;;;;;0.50;0.30;;;;;;;15.22;100.00;94778.22;5073898;28;20438;-60
2023/05/17 03:15:50;;;;;;;0.40;0.30;;;;;;;15.34;100.00;94784.81;5074161;28;20442;-60
2023/05/17 03:18:18;;;;;;;0.80;0.43;;;;;;;15.24;100.00;94776.03;5073940;28;20452;-60
2023/05/17 03:20:47;;;;;;;0.50;0.50;;;;;;;15.22;100.00;94786.22;5074206;28;20442;-60
2023/05/17 03:23:16;;;;;;;0.50;0.50;;;;;;;15.06;100.00;94782.41;5073926;28;20437;-60
2023/05/17 03:25:45;;;;;;;0.33;0.27;;;;;;;15.24;100.00;94777.91;5073962;28;20484;-60
2023/05/17 03:28:14;;;;;;;0.60;0.50;;;;;;;15.33;100.00;94785.94;5073729;28;20461;-60
2023/05/17 03:30:42;;;;;;;2.10;0.40;;;;;;;14.79;100.00;94766.63;5074114;28;20434;-60
2023/05/17 03:33:10;;;;;;;0.40;0.30;;;;;;;14.92;100.00;94787.09;5073655;28;20446;-60
2023/05/17 03:35:39;;;;;;;0.73;0.73;;;;;;;15.12;100.00;94769.72;5073987;28;21029;-60
2023/05/17 03:38:08;;;;;;;0.50;0.30;;;;;;;15.25;100.00;94785.59;5066678;28;20445;-60
2023/05/17 03:40:36;;;;;;;0.83;0.83;;;;;;;15.21;100.00;94779.31;5067772;28;20958;-59
2023/05/17 03:43:06;;;;;;;2.20;0.60;;;;;;;15.22;100.00;94793.44;5073512;28;20495;-59
2023/05/17 03:45:34;;;;;;;0.50;0.50;;;;;;;15.27;100.00;94783.41;5072548;28;21019;-60
2023/05/17 03:48:03;;;;;;;0.60;0.60;;;;;;;15.36;100.00;94786.06;5073566;28;20946;-60
2023/05/17 03:50:31;;;;;;;0.47;0.40;;;;;;;15.37;100.00;94792.22;5073494;28;20963;-60
2023/05/17 03:53:00;;;;;;;0.40;0.30;;;;;;;15.43;100.00;94790.97;5073672;28;20449;-59
2023/05/17 03:55:28;;;;;;;0.40;0.30;;;;;;;15.46;100.00;94801.84;5073135;28;20751;-59
2023/05/17 03:57:57;;;;;;;0.60;0.40;;;;;;;15.48;100.00;94799.66;5073312;28;20512;-59
2023/05/17 04:00:26;;;;;;;0.50;0.50;;;;;;;15.44;100.00;94790.66;5073675;28;20470;-59
2023/05/17 04:02:55;;;;;;;0.87;0.87;;;;;;;15.37;100.00;94806.34;5073433;28;20957;-59
2023/05/17 04:05:23;;;;;;;0.50;0.40;;;;;;;15.07;100.00;94804.53;5073109;28;20472;-61
2023/05/17 04:07:51;;;;;;;1.17;1.17;;;;;;;15.03;100.00;94811.59;5073387;28;20441;-59
2023/05/17 04:10:20;;;;;;;0.40;0.40;;;;;;;15.17;100.00;94814.94;5073232;28;20433;-60
2023/05/17 04:12:48;;;;;;;0.60;0.57;;;;;;;15.17;100.00;94813.06;5073156;28;20504;-59
2023/05/17 04:15:17;;;;;;;0.40;0.30;;;;;;;14.78;100.00;94817.59;5072569;28;20488;-59
2023/05/17 04:17:46;;;;;;;2.50;1.40;;;;;;;14.92;100.00;94818.31;5072372;28;20464;-60
2023/05/17 04:20:15;;;;;;;0.57;0.40;;;;;;;15.23;100.00;94806.47;5072863;28;20455;-59
2023/05/17 04:22:43;;;;;;;0.40;0.30;;;;;;;15.65;100.00;94797.00;5072614;28;20438;-63
2023/05/17 04:25:12;;;;;;;1.03;0.30;;;;;;;15.78;100.00;94798.75;5072642;28;20573;-60
2023/05/17 04:27:40;;;;;;;0.40;0.30;;;;;;;15.69;100.00;94802.50;5071804;28;20469;-59
2023/05/17 04:30:10;;;;;;;0.57;0.57;;;;;;;15.79;100.00;94796.84;5071240;28;20445;-61
2023/05/17 04:32:38;;;;;;;0.60;0.40;;;;;;;16.07;100.00;94800.78;5072245;28;20473;-59
2023/05/17 04:35:09;;;;;;;1.17;0.40;;;;;;;16.10;100.00;94799.34;5072619;28;20442;-59
2023/05/17 04:37:39;;;;;;;0.40;0.30;;;;;;;16.33;100.00;94798.88;5072107;28;20445;-59
2023/05/17 04:40:08;;;;;;;0.70;0.40;;;;;;;16.29;100.00;94759.72;5072801;28;20434;-60
2023/05/17 04:42:37;;;;;;;0.73;0.73;;;;;;;16.50;100.00;94792.69;5072403;28;20430;-60
2023/05/17 04:45:06;;;;;;;0.60;0.40;;;;;;;16.37;100.00;94804.34;5071929;28;20469;-60
2023/05/17 04:47:35;;;;;;;0.40;0.30;;;;;;;16.62;100.00;94789.41;5072082;28;20438;-61
2023/05/17 04:50:04;;;;;;;0.40;0.30;;;;;;;16.38;100.00;94795.22;5072374;28;20480;-61
2023/05/17 04:52:34;;;;;;;0.70;0.70;;;;;;;16.16;100.00;94792.75;5072045;28;20442;-61
2023/05/17 04:55:04;;;;;;;0.70;0.70;;;;;;;16.35;100.00;94796.66;5072353;28;20453;-61
2023/05/17 04:57:32;;;;;;;0.40;0.40;;;;;;;16.43;100.00;94795.84;5058796;28;20444;-61
2023/05/17 05:00:01;;;;;;;2.57;0.47;;;;;;;16.26;100.00;94787.06;5071763;28;20930;-61
2023/05/17 05:02:29;;;;;;;2.30;2.10;;;;;;;15.92;100.00;94801.25;5072048;28;20483;-61
2023/05/17 05:04:58;;;;;;;0.57;0.57;;;;;;;15.81;100.00;94787.41;5071536;28;20476;-61
2023/05/17 05:07:26;;;;;;;1.90;0.93;;;;;;;15.91;100.00;94791.69;5072324;28;20837;-62
2023/05/17 05:09:56;;;;;;;1.57;0.40;;;;;;;16.03;100.00;94796.38;5071378;28;20441;-62
2023/05/17 05:12:25;;;;;;;0.40;0.40;;;;;;;16.37;100.00;94788.31;5071993;28;20433;-62
2023/05/17 05:14:53;;;;;;;0.40;0.30;;;;;;;16.49;100.00;94786.53;5071313;28;20953;-62
2023/05/17 05:17:22;;;;;;;0.80;0.70;;;;;;;16.51;100.00;94783.56;5072058;28;20442;-62
2023/05/17 05:19:50;;;;;;;1.73;0.40;;;;;;;16.92;100.00;94773.06;5071531;28;20446;-62
2023/05/17 05:22:19;;;;;;;0.50;0.40;;;;;;;16.88;100.00;94769.44;5071626;28;20438;-63
2023/05/17 05:24:47;;;;;;;0.50;0.50;;;;;;;16.85;100.00;94762.06;5071646;28;20812;-64
2023/05/17 05:27:17;;;;;;;0.90;0.73;;;;;;;17.16;100.00;94769.78;5068265;28;20543;-61
2023/05/17 05:29:46;;;;;;;0.40;0.30;;;;;;;17.26;100.00;94776.66;5068645;28;20461;-62
2023/05/17 05:32:16;;;;;;;1.70;0.80;;;;;;;17.30;100.00;94767.69;5071744;28;20441;-63
2023/05/17 05:34:44;;;;;;;7.33;0.97;;;;;;;16.55;100.00;94789.88;5071994;28;20430;-64
2023/05/17 05:37:12;;;;;;;1.77;1.67;;;;;;;16.40;100.00;94771.63;5071655;28;20556;-65
2023/05/17 05:39:42;;;;;;;0.40;0.37;;;;;;;16.28;100.00;94796.34;5071223;28;20450;-64
2023/05/17 05:42:10;;;;;;;5.37;0.60;;;;;;;16.71;100.00;94792.81;5071068;28;20481;-65
2023/05/17 05:44:40;;;;;;;1.43;0.77;;;;;;;16.54;100.00;94798.22;5071246;28;20495;-65
2023/05/17 05:47:08;;;;;;;1.33;0.40;;;;;;;16.59;100.00;94806.88;5071260;28;20985;-66
2023/05/17 05:49:36;;;;;;;1.13;0.60;;;;;;;16.80;100.00;94794.34;5071460;28;20454;-65
2023/05/17 05:52:05;;;;;;;3.23;1.10;;;;;;;16.79;100.00;94813.41;5071411;28;20464;-66
2023/05/17 05:54:33;;;;;;;0.87;0.87;;;;;;;16.81;100.00;94814.66;5072212;28;20445;-67
2023/05/17 05:57:01;;;;;;;3.97;1.33;;;;;;;16.87;100.00;94808.03;5072121;28;20473;-66
2023/05/17 05:59:30;;;;;;;13.13;0.50;;;;;;;17.40;100.00;94810.16;5071584;28;20445;-64
2023/05/17 06:02:00;;;;;;;1.17;0.80;;;;;;;17.05;100.00;94812.19;5071345;28;20449;-63
2023/05/17 06:04:29;;;;;;;0.40;0.27;;;;;;;17.05;100.00;94788.09;5060811;28;20462;-67
2023/05/17 06:07:12;;;;;;;1.00;1.00;;;;;;;17.13;100.00;94815.94;5070757;28;20473;-67
2023/05/17 06:09:40;;;;;;;0.50;0.40;;;;;;;17.49;100.00;94808.22;5070859;28;20480;-67
2023/05/17 06:12:09;;;;;;;0.80;0.80;;;;;;;17.29;100.00;94746.56;5071215;28;20992;-66
2023/05/17 06:14:37;;;;;;;0.40;0.20;;;;;;;17.82;100.00;94791.47;5070864;28;20495;-62
2023/05/17 06:17:07;;;;;;;0.40;0.30;;;;;;;17.84;100.00;94795.38;5071303;28;20429;-68
2023/05/17 06:19:35;;;;;;;0.73;0.73;;;;;;;18.30;100.00;94800.53;5070682;28;20475;-66
2023/05/17 06:22:05;;;;;;;1.10;1.00;;;;;;;17.67;100.00;94740.03;5071499;28;20434;-66
2023/05/17 06:24:33;;;;;;;0.97;0.60;;;;;;;17.05;100.00;94632.06;5067563;28;20450;-67
2023/05/17 06:27:01;;;;;;;0.40;0.30;;;;;;;18.61;100.00;94799.31;5060784;28;20488;-67
2023/05/17 06:29:30;;;;;;;0.67;0.63;;;;;;;18.86;100.00;94784.81;5069610;28;20441;-69
2023/05/17 06:31:58;;;;;;;0.63;0.50;;;;;;;18.40;100.00;94783.22;5070991;28;20438;-69
2023/05/17 06:34:28;;;;;;;1.77;0.30;;;;;;;18.36;100.00;94795.75;5070762;28;20444;-70
2023/05/17 06:36:56;;;;;;;0.40;0.30;;;;;;;18.35;100.00;94792.28;5071126;28;20447;-70
2023/05/17 06:39:25;;;;;;;2.00;0.70;;;;;;;18.37;100.00;94768.56;5070813;28;20436;-70
2023/05/17 06:41:53;;;;;;;0.50;0.30;;;;;;;18.52;100.00;94806.66;5073675;28;20445;-72
2023/05/17 06:44:22;;;;;;;1.13;1.03;;;;;;;18.80;100.00;94802.25;5074333;28;20437;-70
2023/05/17 06:46:50;;;;;;;0.40;0.40;;;;;;;18.93;100.00;94807.31;5074404;28;20465;-71
2023/05/17 06:49:18;;;;;;;1.00;0.60;;;;;;;18.81;100.00;94782.34;5074462;28;20472;-70
2023/05/17 06:51:48;;;;;;;1.20;1.20;;;;;;;18.81;100.00;94809.97;5074318;28;20441;-70
2023/05/17 06:54:18;;;;;;;15.53;4.63;;;;;;;18.00;100.00;94817.81;5073514;28;20445;-69
2023/05/17 06:56:49;;;;;;;0.70;0.70;;;;;;;17.73;100.00;94803.03;5073758;28;20448;-69
2023/05/17 06:59:17;;;;;;;2.30;1.20;;;;;;;17.46;100.00;94824.13;5074305;28;20495;-69
2023/05/17 07:01:45;;;;;;;2.50;0.60;;;;;;;16.81;100.00;94835.28;5073971;28;20441;-69
2023/05/17 07:04:14;;;;;;;4.60;4.30;;;;;;;16.53;100.00;94845.59;5074045;28;20849;-69
2023/05/17 07:06:42;;;;;;;1.57;1.47;;;;;;;16.44;100.00;94853.59;5074049;28;20552;-64
2023/05/17 07:09:12;;;;;;;0.60;0.53;;;;;;;16.47;100.00;94844.13;5073896;28;20800;-64
2023/05/17 07:11:41;;;;;;;0.57;0.50;;;;;;;16.43;100.00;94864.59;5073670;28;20490;-61
2023/05/17 07:14:09;;;;;;;0.40;0.30;;;;;;;16.76;100.00;94848.84;5073696;28;20487;-60
2023/05/17 07:16:38;;;;;;;1.00;0.60;;;;;;;16.63;100.00;94844.47;5073921;28;20442;-61
2023/05/17 07:19:06;;;;;;;0.40;0.30;;;;;;;16.99;100.00;94839.50;5073755;28;20484;-61
2023/05/17 07:21:34;;;;;;;0.40;0.30;;;;;;;17.17;100.00;94829.50;5073691;28;20529;-61
2023/05/17 07:24:04;;;;;;;7.20;0.60;;;;;;;16.84;100.00;94837.34;5073598;28;20433;-62
2023/05/17 07:26:33;;;;;;;0.73;0.60;;;;;;;16.99;100.00;94839.50;5068452;28;21013;-62
2023/05/17 07:29:02;;;;;;;0.40;0.20;;;;;;;17.00;100.00;94839.16;5065123;28;20442;-62
2023/05/17 07:31:30;;;;;;;5.00;0.87;;;;;;;17.00;100.00;94846.44;5073046;28;20434;-62
2023/05/17 07:33:58;;;;;;;0.43;0.43;;;;;;;17.12;100.00;94852.69;5073683;28;20872;-62
2023/05/17 07:36:29;;;;;;;0.63;0.63;;;;;;;17.15;100.00;94852.00;5073355;28;20525;-62
2023/05/17 07:38:58;;;;;;;7.33;0.90;;;;;;;17.29;100.00;94854.47;5072825;28;20536;-62
2023/05/17 07:41:26;;;;;;;1.03;1.03;;;;;;;17.19;100.00;94849.50;5073613;28;20496;-62
2023/05/17 07:43:56;;;;;;;3.40;0.87;;;;;;;17.11;100.00;94852.97;5073682;28;20476;-62
2023/05/17 07:46:25;;;;;;;0.73;0.47;;;;;;;17.27;100.00;94843.31;5073318;28;20796;-62
2023/05/17 07:48:54;;;;;;;0.40;0.40;;;;;;;17.26;100.00;94846.28;5073342;28;20524;-63
2023/05/17 07:51:25;;;;;;;0.50;0.40;;;;;;;17.65;100.00;94848.66;5073344;28;20441;-63
2023/05/17 07:53:54;;;;;;;0.90;0.70;;;;;;;17.92;100.00;94844.69;5072437;28;20473;-63
2023/05/17 07:56:22;;;;;;;0.50;0.50;;;;;;;18.14;100.00;94847.81;5073300;28;20787;-63
2023/05/17 07:58:51;;;;;;;0.90;0.50;;;;;;;17.70;100.00;94835.88;5072910;28;20440;-64
2023/05/17 08:01:21;;;;;;;0.70;0.60;;;;;;;17.66;100.00;94823.41;5073258;28;20510;-64
2023/05/17 08:03:50;;;;;;;0.40;0.40;;;;;;;17.57;100.00;94842.25;5072887;28;20448;-64
2023/05/17 08:06:19;;;;;;;0.57;0.57;;;;;;;17.20;100.00;94810.09;5072735;28;20453;-64
2023/05/17 08:08:48;;;;;;;0.83;0.50;;;;;;;17.38;100.00;94812.34;5072949;28;20516;-64
2023/05/17 08:11:17;;;;;;;1.00;1.00;;;;;;;17.76;100.00;94807.75;5072860;28;20464;-63
2023/05/17 08:13:46;;;;;;;0.50;0.47;;;;;;;18.36;100.00;94819.88;5046701;28;20526;-64
2023/05/17 08:16:14;;;;;;;3.03;1.13;;;;;;;18.71;100.00;94831.09;5072697;28;20445;-60
2023/05/17 08:18:44;;;;;;;0.70;0.70;;;;;;;18.48;100.00;94821.84;5072936;28;20812;-61
2023/05/17 08:21:13;;;;;;;1.60;1.50;;;;;;;18.67;100.00;94804.13;5072840;28;20438;-63
2023/05/17 08:23:42;;;;;;;0.50;0.40;;;;;;;20.08;100.00;94829.34;5072624;28;20456;-59
2023/05/17 08:26:11;;;;;;;0.40;0.33;;;;;;;20.06;100.00;94808.16;5072416;28;20499;-58
2023/05/17 08:28:40;;;;;;;2.10;0.63;;;;;;;20.58;100.00;94820.78;5072406;28;20488;-58
2023/05/17 08:31:08;;;;;;;0.63;0.60;;;;;;;20.18;100.00;94821.59;5072290;28;20445;-58
2023/05/17 08:33:37;;;;;;;0.70;0.60;;;;;;;20.17;100.00;94825.38;5072385;28;20956;-58
2023/05/17 08:36:07;;;;;;;0.50;0.40;;;;;;;20.34;100.00;94775.13;5072245;28;20438;-58
2023/05/17 08:38:36;;;;;;;0.97;0.97;;;;;;;20.66;100.00;94819.84;5072459;28;20465;-58
2023/05/17 08:41:04;;;;;;;0.50;0.50;;;;;;;20.91;100.00;94823.97;5072667;28;20961;-58
2023/05/17 08:43:33;;;;;;;0.90;0.73;;;;;;;20.50;100.00;94816.31;5072302;28;20962;-59
2023/05/17 08:46:03;;;;;;;0.63;0.60;;;;;;;20.13;100.00;94815.66;5072509;28;20438;-59
2023/05/17 08:48:31;;;;;;;0.50;0.50;;;;;;;19.84;100.00;94771.00;5072614;28;20907;-60
2023/05/17 08:51:00;;;;;;;1.03;0.50;;;;;;;19.76;100.00;94816.88;5072048;28;20444;-60
2023/05/17 08:53:30;;;;;;;0.47;0.43;;;;;;;19.85;100.00;94815.63;5071838;28;20479;-60
2023/05/17 08:56:01;;;;;;;2.00;0.60;;;;;;;19.71;100.00;94811.72;5071860;28;20499;-60
2023/05/17 08:58:36;;;;;;;1.33;0.40;;;;;;;20.06;100.00;94804.69;5071882;28;20507;-62
2023/05/17 09:01:24;;;;;;;0.43;0.30;;;;;;;20.15;100.00;94792.66;5071849;28;20438;-62
2023/05/17 09:03:54;;;;;;;0.40;0.30;;;;;;;20.10;100.00;94794.81;5071829;28;20434;-62
2023/05/17 09:06:24;;;;;;;0.40;0.30;;;;;;;20.15;100.00;94797.25;5072060;28;20487;-63
2023/05/17 09:08:54;;;;;;;0.40;0.30;;;;;;;19.95;100.00;94793.63;5046037;28;20474;-63
2023/05/17 09:11:27;;;;;;;1.10;0.40;;;;;;;19.49;100.00;94802.22;5070311;28;20536;-63
2023/05/17 09:13:59;;;;;;;0.77;0.77;;;;;;;19.18;100.00;94810.78;5071735;28;20445;-64
2023/05/17 09:16:28;;;;;;;1.07;0.80;;;;;;;19.11;100.00;94796.34;5071471;28;20560;-64
2023/05/17 09:18:58;;;;;;;0.50;0.37;;;;;;;19.08;100.00;94792.44;5071926;28;20445;-64
2023/05/17 09:21:28;;;;;;;1.50;0.60;;;;;;;19.42;100.00;94793.94;5071451;28;20441;-63
2023/05/17 09:24:00;;;;;;;0.90;0.30;;;;;;;19.63;100.00;94776.53;5070963;28;20475;-62
2023/05/17 09:26:41;;;;;;;0.50;0.33;;;;;;;19.72;100.00;94760.28;5070992;28;20560;-61
2023/05/17 09:29:10;;;;;;;0.97;0.97;;;;;;;19.73;100.00;94753.00;5071788;28;20858;-61
2023/05/17 09:31:39;;;;;;;0.47;0.30;;;;;;;20.23;100.00;94780.22;5071674;28;20445;-61
2023/05/17 09:34:08;;;;;;;0.50;0.40;;;;;;;20.56;100.00;94779.94;5070113;28;20437;-62
2023/05/17 09:36:38;;;;;;;0.33;0.27;;;;;;;20.69;100.00;94733.78;5071289;28;20946;-60
2023/05/17 09:39:10;;;;;;;5.60;0.63;;;;;;;19.95;100.00;94632.22;5071022;28;20442;-60
2023/05/17 09:41:44;;;;;;;0.40;0.30;;;;;;;21.30;100.00;94782.59;5071645;28;20481;-59
2023/05/17 09:44:13;;;;;;;0.40;0.20;;;;;;;21.40;100.00;94771.28;5071289;28;20442;-59
2023/05/17 09:46:44;;;;;;;0.50;0.43;;;;;;;21.35;100.00;94747.31;5071583;28;20517;-59
2023/05/17 09:49:13;;;;;;;0.50;0.50;;;;;;;21.30;100.00;94752.97;5071140;28;20484;-59
2023/05/17 09:51:44;;;;;;;0.50;0.47;;;;;;;21.29;100.00;94751.41;5071127;28;20477;-59
2023/05/17 09:54:14;;;;;;;0.40;0.30;;;;;;;21.34;100.00;94751.16;5071098;28;20426;-59
2023/05/17 09:56:43;;;;;;;3.27;1.00;;;;;;;20.88;100.00;94744.63;5071557;28;20834;-59
2023/05/17 09:59:13;;;;;;;0.90;0.80;;;;;;;21.34;100.00;94745.75;5057917;28;20481;-59
2023/05/17 10:01:43;;;;;;;0.60;0.50;;;;;;;21.53;100.00;94737.69;5071189;28;20448;-59
2023/05/17 10:04:13;;;;;;;0.50;0.50;;;;;;;21.62;100.00;94734.81;5071374;28;20441;-59
2023/05/17 10:06:43;;;;;;;1.07;0.60;;;;;;;21.70;100.00;94743.84;5071175;28;20438;-59
2023/05/17 10:09:22;;;;;;;0.40;0.40;;;;;;;21.46;100.00;94744.84;5071201;28;20862;-60
2023/05/17 10:11:52;;;;;;;0.80;0.70;;;;;;;21.27;100.00;94737.50;5070736;28;20437;-59
2023/05/17 10:14:26;;;;;;;1.27;1.17;;;;;;;21.48;100.00;94718.31;5071179;28;20441;-59
2023/05/17 10:16:56;;;;;;;0.50;0.40;;;;;;;21.70;100.00;94708.78;5074014;28;20433;-59
2023/05/17 10:19:25;;;;;;;0.60;0.47;;;;;;;21.98;100.00;94704.00;5075196;28;20449;-60
2023/05/17 10:21:56;;;;;;;1.27;0.30;;;;;;;22.74;99.94;94697.72;5075515;28;20835;-60
2023/05/17 10:24:37;;;;;;;1.07;1.03;;;;;;;23.00;95.65;94680.72;5075046;28;20441;-60
2023/05/17 10:27:07;;;;;;;3.60;0.53;;;;;;;23.77;84.94;94681.06;5074536;28;20464;-62
2023/05/17 10:29:38;;;;;;;0.40;0.30;;;;;;;24.73;74.86;94691.03;5074472;28;20515;-62
2023/05/17 10:32:08;;;;;;;3.90;0.50;;;;;;;25.13;75.27;94675.53;5074995;28;20874;-62
2023/05/17 10:34:37;;;;;;;4.90;0.80;;;;;;;25.14;73.87;94679.03;5075115;28;20444;-62
2023/05/17 10:37:06;;;;;;;0.80;0.50;;;;;;;25.18;72.85;94672.47;5074506;28;20441;-62
2023/05/17 10:39:37;;;;;;;2.30;0.43;;;;;;;26.52;68.69;94658.72;5074053;28;21025;-61
2023/05/17 10:42:08;;;;;;;1.47;0.57;;;;;;;26.47;64.02;94649.03;5074143;28;20449;-62
2023/05/17 10:44:40;;;;;;;0.40;0.30;;;;;;;26.34;62.74;94650.53;5073911;28;20433;-62
2023/05/17 10:47:08;;;;;;;0.40;0.40;;;;;;;25.06;67.87;94663.84;5074043;28;20930;-61
2023/05/17 10:49:40;;;;;;;0.40;0.40;;;;;;;24.40;66.32;94662.09;5074331;28;20479;-61
2023/05/17 10:52:12;;;;;;;0.50;0.37;;;;;;;25.53;59.96;94647.50;5074689;28;20958;-62
2023/05/17 10:54:43;;;;;;;1.23;1.23;;;;;;;25.61;62.16;94651.81;5074799;28;20437;-60
2023/05/17 10:57:20;;;;;;;0.40;0.30;;;;;;;25.91;61.45;94650.78;5074232;28;20437;-60
2023/05/17 10:59:59;;;;;;;1.03;0.90;;;;;;;25.81;58.65;94644.13;5074927;28;20437;-60
2023/05/17 11:02:28;;;;;;;0.80;0.60;;;;;;;24.97;62.14;94645.19;5048022;28;20438;-60
2023/05/17 11:04:59;;;;;;;0.63;0.60;;;;;;;24.61;61.64;94657.66;5074327;28;20445;-60
2023/05/17 11:07:31;;;;;;;0.47;0.40;;;;;;;24.45;64.94;94653.63;5074447;28;20516;-59
2023/05/17 11:10:10;;;;;;;2.03;1.90;;;;;;;24.25;65.72;94646.84;5073930;28;20484;-60
2023/05/17 11:12:40;;;;;;;0.40;0.30;;;;;;;24.11;65.29;94649.41;5074143;28;20445;-59
2023/05/17 11:15:10;;;;;;;0.50;0.40;;;;;;;24.32;64.22;94650.41;5073857;28;20441;-58
2023/05/17 11:17:50;;;;;;;1.17;0.63;;;;;;;24.80;64.12;94653.97;5073558;28;20441;-58
2023/05/17 11:20:37;;;;;;;0.60;0.40;;;;;;;23.92;63.90;94661.16;5047739;28;20441;-58
2023/05/17 11:23:07;;;;;;;2.10;1.20;;;;;;;23.15;63.19;94663.56;5073657;28;20442;-58
2023/05/17 11:25:39;;;;;;;2.93;0.50;;;;;;;22.84;63.29;94659.28;5073722;28;20449;-57
2023/05/17 11:28:08;;;;;;;0.40;0.30;;;;;;;23.60;65.35;94649.97;5072215;28;21017;-57
2023/05/17 11:30:49;;;;;;;1.23;1.13;;;;;;;23.52;62.63;94602.31;5062471;28;20474;-57
2023/05/17 11:33:19;;;;;;;0.50;0.30;;;;;;;23.90;59.01;94622.88;5048403;28;20448;-57
2023/05/17 11:36:06;;;;;;;0.50;0.40;;;;;;;23.56;59.17;94641.00;5073470;28;20451;-57
2023/05/17 11:38:35;;;;;;;0.50;0.50;;;;;;;23.81;59.70;94642.09;5073694;28;20455;-57